Time;durP1;ratioP1;P1;durP2;ratioP2;P2;SDS_P1;SDS_P2;PMS_P1;PMS_P2;Temp;Humidity;BMP_temperature;BMP_pressure;BME280_temperature;BME280_humidity;BME280_pressure;Samples;Min_cycle;Max_cycle;Signal;HPM_P1;HPM_P2
2020/12/08 00:00:44;;;;;;;13.80;12.50;;;;;;;0.79;88.71;94065.22;6054809;23;20202;-76
2020/12/08 00:03:11;;;;;;;11.00;9.90;;;;;;;0.77;88.78;94069.78;6052337;23;20209;-76
2020/12/08 00:05:37;;;;;;;12.13;10.43;;;;;;;0.71;88.26;94067.81;6053315;23;20218;-76
2020/12/08 00:08:06;;;;;;;10.27;9.33;;;;;;;0.76;87.12;94069.94;6057220;23;20262;-75
2020/12/08 00:10:33;;;;;;;11.20;10.07;;;;;;;0.67;86.95;94074.34;6056358;23;21074;-78
2020/12/08 00:13:01;;;;;;;10.97;9.87;;;;;;;0.60;86.63;94068.16;6055257;23;20213;-78
2020/12/08 00:15:28;;;;;;;10.57;9.57;;;;;;;0.54;87.42;94068.81;6054079;23;20217;-79
2020/12/08 00:17:55;;;;;;;12.00;9.93;;;;;;;0.52;86.73;94068.16;6055170;23;20213;-76
2020/12/08 00:20:22;;;;;;;13.07;10.63;;;;;;;0.50;87.79;94065.72;6056644;23;20194;-78
2020/12/08 00:22:49;;;;;;;11.53;10.00;;;;;;;0.52;87.55;94062.97;6053621;23;20207;-76
2020/12/08 00:25:17;;;;;;;9.80;8.80;;;;;;;0.51;88.67;94071.72;6057390;23;20230;-76
2020/12/08 00:27:43;;;;;;;12.13;10.90;;;;;;;0.59;87.61;94063.94;6054880;23;20208;-76
2020/12/08 00:30:12;;;;;;;10.80;9.60;;;;;;;0.55;87.73;94060.88;6055298;23;20216;-75
2020/12/08 00:32:41;;;;;;;10.57;9.60;;;;;;;0.51;87.73;94061.34;6056428;23;20202;-77
2020/12/08 00:35:11;;;;;;;10.43;9.30;;;;;;;0.52;88.39;94068.16;6055262;23;20209;-76
2020/12/08 00:37:42;;;;;;;11.60;10.50;;;;;;;0.52;88.18;94062.97;6056531;23;20545;-75
2020/12/08 00:40:10;;;;;;;10.50;9.50;;;;;;;0.49;88.13;94066.72;6054640;23;20205;-75
2020/12/08 00:42:39;;;;;;;10.33;9.37;;;;;;;0.59;88.63;94066.53;6044986;23;20253;-76
2020/12/08 00:45:07;;;;;;;14.33;12.83;;;;;;;0.68;87.81;94056.97;6055242;23;20201;-77
2020/12/08 00:47:35;;;;;;;10.47;9.47;;;;;;;0.59;87.70;94063.94;6054181;23;20288;-76
2020/12/08 00:50:03;;;;;;;12.57;10.80;;;;;;;0.61;87.37;94066.38;6056803;23;20209;-76
2020/12/08 00:52:32;;;;;;;12.43;11.03;;;;;;;0.67;87.66;94057.94;6057280;23;20198;-76
2020/12/08 00:55:08;;;;;;;12.00;10.13;;;;;;;0.69;87.30;94059.41;6055447;23;20208;-75
2020/12/08 00:57:35;;;;;;;10.67;9.60;;;;;;;0.57;86.90;94060.72;6054678;23;20283;-76
2020/12/08 01:00:06;;;;;;;11.47;10.47;;;;;;;0.50;87.30;94059.72;6054607;23;20211;-76
2020/12/08 01:02:38;;;;;;;9.33;8.53;;;;;;;0.47;87.72;94060.06;6054233;23;20195;-75
2020/12/08 01:05:10;;;;;;;13.03;11.60;;;;;;;0.45;88.11;94061.97;6055438;23;20245;-76
2020/12/08 01:07:39;;;;;;;10.83;9.53;;;;;;;0.46;87.86;94064.44;6054760;23;20209;-76
2020/12/08 01:10:08;;;;;;;10.00;9.07;;;;;;;0.50;88.31;94070.09;6054588;23;20232;-76
2020/12/08 01:12:38;;;;;;;14.77;12.33;;;;;;;0.54;88.63;94071.41;6055029;23;20719;-76
2020/12/08 01:15:06;;;;;;;9.87;8.77;;;;;;;0.47;88.05;94076.44;6053340;23;20238;-75
2020/12/08 01:17:34;;;;;;;11.33;9.87;;;;;;;0.43;87.80;94079.50;6056324;23;20721;-76
2020/12/08 01:20:03;;;;;;;12.60;11.30;;;;;;;0.38;88.34;94074.00;6056339;23;20209;-75
2020/12/08 01:22:31;;;;;;;10.10;9.10;;;;;;;0.38;88.52;94074.81;6055205;23;20209;-76
2020/12/08 01:24:58;;;;;;;12.17;10.93;;;;;;;0.40;89.08;94072.06;6057555;23;20206;-76
2020/12/08 01:27:27;;;;;;;11.40;9.73;;;;;;;0.44;88.88;94076.75;6054618;23;20700;-76
2020/12/08 01:29:54;;;;;;;11.13;10.13;;;;;;;0.47;88.22;94076.44;6055937;23;20308;-75
2020/12/08 01:32:21;;;;;;;15.37;13.80;;;;;;;0.43;88.14;94075.13;6053473;23;20503;-76
2020/12/08 01:34:49;;;;;;;11.97;10.77;;;;;;;0.42;88.29;94077.88;6055093;23;20213;-76
2020/12/08 01:37:16;;;;;;;11.83;10.13;;;;;;;0.53;88.12;94074.97;6054445;23;20285;-76
2020/12/08 01:39:43;;;;;;;11.43;10.03;;;;;;;0.55;87.71;94073.84;6056690;23;20281;-75
2020/12/08 01:42:11;;;;;;;13.00;11.20;;;;;;;0.48;88.01;94072.88;6056513;23;20212;-74
2020/12/08 01:44:39;;;;;;;11.00;9.90;;;;;;;0.41;88.26;94065.88;6055283;23;20641;-76
2020/12/08 01:47:06;;;;;;;10.47;9.47;;;;;;;0.38;88.54;94071.41;6054618;23;20217;-76
2020/12/08 01:49:33;;;;;;;13.03;10.97;;;;;;;0.44;88.37;94081.13;6054424;23;20205;-76
2020/12/08 01:52:01;;;;;;;10.63;9.60;;;;;;;0.56;87.66;94072.06;6055713;23;20213;-76
2020/12/08 01:54:29;;;;;;;11.83;10.70;;;;;;;0.44;87.86;94070.75;6054470;23;20204;-76
2020/12/08 01:56:58;;;;;;;9.90;8.63;;;;;;;0.39;87.68;94068.66;6054479;23;20821;-76
2020/12/08 01:59:25;;;;;;;11.43;10.33;;;;;;;0.35;88.16;94077.72;6054732;23;20282;-77
2020/12/08 02:02:09;;;;;;;13.27;10.37;;;;;;;0.31;88.25;94075.59;6053948;23;20208;-76
2020/12/08 02:04:37;;;;;;;11.37;10.27;;;;;;;0.32;88.38;94078.03;6056810;23;20278;-76
2020/12/08 02:07:05;;;;;;;14.57;11.47;;;;;;;0.27;88.47;94069.91;6054292;23;20220;-75
2020/12/08 02:09:36;;;;;;;11.87;10.13;;;;;;;0.32;88.38;94065.06;6055037;23;20206;-76
2020/12/08 02:12:05;;;;;;;9.77;8.77;;;;;;;0.36;88.87;94073.34;6054800;23;20695;-76
2020/12/08 02:14:37;;;;;;;11.70;10.20;;;;;;;0.32;89.12;94077.22;6052816;23;20555;-76
2020/12/08 02:17:04;;;;;;;11.37;10.27;;;;;;;0.12;88.62;94082.72;6056368;23;20205;-75
2020/12/08 02:19:32;;;;;;;11.00;9.90;;;;;;;0.05;88.78;94075.72;6055041;23;20216;-76
2020/12/08 02:22:04;;;;;;;16.23;12.30;;;;;;;0.02;89.54;94076.84;6056657;23;20215;-76
2020/12/08 02:24:32;;;;;;;10.93;9.83;;;;;;;0.03;89.16;94062.91;6055067;23;20210;-75
2020/12/08 02:26:59;;;;;;;10.03;8.80;;;;;;;0.03;89.46;94062.91;6054455;23;20669;-75
2020/12/08 02:29:26;;;;;;;11.50;10.40;;;;;;;0.07;89.82;94066.81;6055940;23;20452;-76
2020/12/08 02:31:53;;;;;;;10.70;9.43;;;;;;;0.10;90.05;94060.50;6054811;23;20467;-76
2020/12/08 02:34:21;;;;;;;11.70;10.60;;;;;;;0.06;89.72;94066.97;6053099;23;20714;-76
2020/12/08 02:36:55;;;;;;;14.30;10.47;;;;;;;0.04;89.99;94064.53;6054259;23;20518;-76
2020/12/08 02:39:24;;;;;;;11.37;9.57;;;;;;;0.01;90.20;94064.06;6054122;23;20206;-76
2020/12/08 02:41:51;;;;;;;12.10;10.53;;;;;;;0.09;90.14;94062.28;6054117;23;20826;-76
2020/12/08 02:44:18;;;;;;;11.90;8.97;;;;;;;0.03;89.68;94057.72;6056565;23;20264;-76
2020/12/08 02:46:48;;;;;;;9.20;8.27;;;;;;;0.06;90.12;94067.78;6055213;23;20710;-76
2020/12/08 02:49:18;;;;;;;10.40;9.37;;;;;;;-0.07;89.27;94059.66;6055278;23;20208;-76
2020/12/08 02:51:45;;;;;;;8.90;8.00;;;;;;;-0.15;89.11;94063.03;6054417;23;20203;-75
2020/12/08 02:54:13;;;;;;;10.97;9.47;;;;;;;-0.24;89.01;94050.22;6053771;23;20229;-75
2020/12/08 02:56:41;;;;;;;8.17;7.23;;;;;;;-0.30;89.35;94055.03;6054602;23;20209;-76
2020/12/08 02:59:20;;;;;;;9.27;8.37;;;;;;;-0.39;90.14;94053.41;6054522;23;20229;-76
2020/12/08 03:01:48;;;;;;;8.30;7.50;;;;;;;-0.45;89.94;94059.22;6053924;23;20228;-76
2020/12/08 03:04:15;;;;;;;7.03;6.30;;;;;;;-0.43;90.03;94052.09;6054423;23;20211;-76
2020/12/08 03:06:42;;;;;;;7.77;6.13;;;;;;;-0.45;89.84;94048.84;6054232;23;20215;-76
2020/12/08 03:09:10;;;;;;;8.30;7.43;;;;;;;-0.52;90.05;94047.84;6054488;23;20212;-76
2020/12/08 03:11:38;;;;;;;8.20;7.40;;;;;;;-0.60;89.84;94047.81;6054198;23;20446;-76
2020/12/08 03:14:17;;;;;;;8.37;7.57;;;;;;;-0.63;90.43;94041.19;6052513;23;20509;-76
2020/12/08 03:16:45;;;;;;;8.30;7.50;;;;;;;-0.58;90.57;94040.69;6054486;23;20203;-76
2020/12/08 03:19:13;;;;;;;10.33;8.57;;;;;;;-0.63;90.26;94041.19;6055007;23;20440;-76
2020/12/08 03:21:40;;;;;;;8.37;7.50;;;;;;;-0.71;90.77;94037.75;6056084;23;20202;-76
2020/12/08 03:24:20;;;;;;;10.50;6.97;;;;;;;-0.74;90.75;94032.84;6056023;23;20438;-76
2020/12/08 03:26:47;;;;;;;7.97;7.20;;;;;;;-0.74;91.19;94035.44;6056000;23;20474;-76
2020/12/08 03:29:14;;;;;;;8.47;7.60;;;;;;;-0.69;91.81;94033.22;6048159;23;20833;-76
2020/12/08 03:31:42;;;;;;;8.63;7.87;;;;;;;-0.66;91.23;94025.13;6056241;23;20383;-76
2020/12/08 03:34:09;;;;;;;9.93;8.93;;;;;;;-0.67;91.58;94033.84;6055954;23;20439;-76
2020/12/08 03:36:39;;;;;;;9.73;8.07;;;;;;;-0.64;91.58;94036.13;6056460;23;20446;-76
2020/12/08 03:39:06;;;;;;;10.63;8.60;;;;;;;-0.66;92.03;94035.47;6056153;23;20677;-76
2020/12/08 03:41:37;;;;;;;11.53;8.57;;;;;;;-0.66;92.05;94028.50;6055425;23;21144;-76
2020/12/08 03:44:08;;;;;;;7.10;6.27;;;;;;;-0.63;92.07;94040.38;6056283;23;20440;-76
2020/12/08 03:46:36;;;;;;;9.27;8.30;;;;;;;-0.59;91.61;94042.47;6056032;23;21372;-76
2020/12/08 03:49:06;;;;;;;10.93;9.30;;;;;;;-0.62;91.96;94042.00;6056003;23;20454;-76
2020/12/08 03:51:35;;;;;;;10.43;9.27;;;;;;;-0.67;92.08;94039.84;6055988;23;20951;-75
2020/12/08 03:54:09;;;;;;;10.30;9.30;;;;;;;-0.66;92.22;94040.66;6056973;23;20205;-75
2020/12/08 03:56:44;;;;;;;7.27;6.63;;;;;;;-0.61;91.82;94035.84;6055138;23;20444;-76
2020/12/08 03:59:17;;;;;;;9.90;8.10;;;;;;;-0.59;92.24;94036.47;6055426;23;20942;-76
2020/12/08 04:01:50;;;;;;;9.00;8.20;;;;;;;-0.61;92.41;94038.44;6056022;23;20438;-75
2020/12/08 04:04:19;;;;;;;10.07;9.03;;;;;;;-0.65;91.75;94037.91;6055364;23;20522;-76
2020/12/08 04:06:47;;;;;;;10.70;9.70;;;;;;;-0.67;91.33;94039.03;6054978;23;20445;-76
2020/12/08 04:09:15;;;;;;;7.87;7.00;;;;;;;-0.67;91.49;94049.41;6055427;23;20438;-76
2020/12/08 04:11:42;;;;;;;8.17;6.83;;;;;;;-0.76;91.47;94053.72;6054729;23;20210;-76
2020/12/08 04:14:10;;;;;;;9.47;8.23;;;;;;;-0.75;90.85;94047.56;6053570;23;20439;-76
2020/12/08 04:16:40;;;;;;;9.57;8.67;;;;;;;-0.84;91.32;94047.69;6056050;23;21161;-75
2020/12/08 04:19:16;;;;;;;10.10;9.17;;;;;;;-0.92;91.79;94045.88;6054826;23;20443;-75
2020/12/08 04:21:45;;;;;;;8.07;7.00;;;;;;;-0.93;92.10;94045.06;6055207;23;20297;-75
2020/12/08 04:24:21;;;;;;;11.37;10.20;;;;;;;-0.95;92.28;94041.81;6055169;23;20422;-75
2020/12/08 04:26:50;;;;;;;10.23;9.03;;;;;;;-0.91;92.70;94035.38;6054416;23;20447;-76
2020/12/08 04:29:26;;;;;;;10.03;8.83;;;;;;;-0.92;92.83;94035.50;6055056;23;20439;-76
2020/12/08 04:31:54;;;;;;;10.30;9.27;;;;;;;-0.86;92.54;94035.72;6055468;23;20444;-75
2020/12/08 04:34:21;;;;;;;8.60;7.80;;;;;;;-0.94;92.60;94048.63;6057199;23;20443;-76
2020/12/08 04:36:49;;;;;;;10.60;9.53;;;;;;;-0.97;92.97;94048.94;6055957;23;20448;-76
2020/12/08 04:39:16;;;;;;;12.23;8.43;;;;;;;-0.90;92.45;94044.78;6056338;23;20515;-76
2020/12/08 04:41:43;;;;;;;8.10;7.30;;;;;;;-0.91;91.85;94047.53;6053507;23;20443;-76
2020/12/08 04:44:11;;;;;;;5.80;5.23;;;;;;;-1.03;92.06;94046.94;6057581;23;20435;-76
2020/12/08 04:46:39;;;;;;;7.93;7.13;;;;;;;-1.08;91.79;94059.56;6055306;23;21001;-76
2020/12/08 04:49:06;;;;;;;7.83;7.10;;;;;;;-1.13;91.94;94063.56;6056878;23;20443;-75
2020/12/08 04:51:39;;;;;;;7.30;6.57;;;;;;;-1.17;92.45;94063.06;6056747;23;20493;-75
2020/12/08 04:54:07;;;;;;;6.23;5.57;;;;;;;-1.15;92.85;94056.75;6055757;23;20437;-75
2020/12/08 04:56:35;;;;;;;10.60;8.83;;;;;;;-1.12;93.08;94054.81;6054236;23;20446;-76
2020/12/08 04:59:02;;;;;;;9.73;7.90;;;;;;;-0.93;92.74;94045.06;6057419;23;20472;-75
2020/12/08 05:01:29;;;;;;;7.23;6.53;;;;;;;-0.99;93.29;94050.88;6055460;23;20442;-75
2020/12/08 05:03:58;;;;;;;7.60;6.87;;;;;;;-1.00;93.12;94054.44;6057186;23;20872;-75
2020/12/08 05:06:25;;;;;;;7.77;7.07;;;;;;;-1.00;93.35;94048.44;6055277;23;20589;-75
2020/12/08 05:09:03;;;;;;;9.20;8.30;;;;;;;-0.98;93.21;94056.84;6056871;23;20502;-75
2020/12/08 05:11:31;;;;;;;9.53;8.47;;;;;;;-0.86;93.08;94053.03;6054957;23;20578;-75
2020/12/08 05:14:02;;;;;;;10.53;9.53;;;;;;;-0.81;92.16;94052.59;6055305;23;20495;-75
2020/12/08 05:16:29;;;;;;;10.83;9.57;;;;;;;-0.82;92.52;94051.78;6052128;23;20442;-75
2020/12/08 05:19:07;;;;;;;8.10;7.30;;;;;;;-0.90;92.44;94049.94;6055215;23;20476;-75
2020/12/08 05:21:34;;;;;;;11.03;8.77;;;;;;;-0.94;92.34;94047.81;6054718;23;20494;-74
2020/12/08 05:24:01;;;;;;;12.10;9.77;;;;;;;-1.04;92.60;94041.94;6055378;23;20438;-75
2020/12/08 05:26:28;;;;;;;7.70;7.00;;;;;;;-1.04;92.75;94047.91;6054897;23;20473;-76
2020/12/08 05:29:00;;;;;;;8.50;7.67;;;;;;;-1.04;93.23;94045.31;6056379;23;20860;-75
2020/12/08 05:31:28;;;;;;;11.97;10.97;;;;;;;-0.99;93.08;94037.13;6052858;23;20623;-75
2020/12/08 05:33:58;;;;;;;12.77;9.80;;;;;;;-1.01;93.33;94042.41;6054956;23;20535;-75
2020/12/08 05:36:28;;;;;;;11.13;9.93;;;;;;;-0.87;93.21;94039.28;6054898;23;20502;-75
2020/12/08 05:39:00;;;;;;;11.50;10.07;;;;;;;-0.84;92.73;94050.28;6056059;23;20442;-75
2020/12/08 05:41:31;;;;;;;10.97;9.37;;;;;;;-0.91;92.90;94053.50;6052944;23;20439;-75
2020/12/08 05:44:05;;;;;;;10.07;9.07;;;;;;;-0.98;93.10;94068.03;6055116;23;20437;-75
2020/12/08 05:46:41;;;;;;;9.53;8.53;;;;;;;-0.93;93.23;94063.19;6056929;23;20447;-75
2020/12/08 05:49:13;;;;;;;11.07;8.53;;;;;;;-0.90;92.93;94068.06;6053743;23;20604;-75
2020/12/08 05:51:42;;;;;;;9.90;8.90;;;;;;;-0.95;92.66;94070.28;6053905;23;20455;-75
2020/12/08 05:54:13;;;;;;;10.03;9.03;;;;;;;-0.99;92.88;94074.16;6056300;23;20438;-75
2020/12/08 05:56:40;;;;;;;8.73;7.87;;;;;;;-1.01;92.95;94075.25;6055249;23;20498;-75
2020/12/08 05:59:08;;;;;;;10.47;8.87;;;;;;;-1.05;93.47;94077.34;6054471;23;20435;-75
2020/12/08 06:01:48;;;;;;;11.63;10.47;;;;;;;-1.06;94.01;94082.69;6055823;23;20447;-75
2020/12/08 06:04:15;;;;;;;10.27;9.00;;;;;;;-1.06;93.94;94075.75;6055774;23;20442;-75
2020/12/08 06:06:52;;;;;;;8.47;7.57;;;;;;;-1.06;94.74;94080.91;6054383;23;20501;-75
2020/12/08 06:09:22;;;;;;;10.23;9.03;;;;;;;-1.05;94.60;94081.72;6054793;23;20439;-75
2020/12/08 06:11:49;;;;;;;9.77;8.77;;;;;;;-1.01;94.42;94083.84;6056325;23;20824;-75
2020/12/08 06:14:32;;;;;;;14.37;11.20;;;;;;;-0.92;93.77;94085.50;6052698;23;20436;-75
2020/12/08 06:17:00;;;;;;;12.07;8.20;;;;;;;-0.98;93.78;94083.56;6053849;23;20442;-75
2020/12/08 06:19:27;;;;;;;10.40;7.77;;;;;;;-0.96;93.33;94081.63;6053965;23;20443;-75
2020/12/08 06:21:54;;;;;;;10.90;8.70;;;;;;;-0.97;93.41;94074.81;6054105;23;20438;-75
2020/12/08 06:24:21;;;;;;;11.03;9.50;;;;;;;-0.90;93.22;94075.84;6055586;23;20431;-75
2020/12/08 06:26:48;;;;;;;9.07;6.50;;;;;;;-0.92;92.39;94076.94;6054284;23;20453;-75
2020/12/08 06:29:15;;;;;;;7.97;6.83;;;;;;;-0.96;92.92;94068.69;6056223;23;20443;-74
2020/12/08 06:31:44;;;;;;;12.30;10.47;;;;;;;-0.99;92.91;94071.59;6056497;23;20824;-75
2020/12/08 06:34:19;;;;;;;11.37;8.70;;;;;;;-0.90;92.38;94069.84;6054677;23;20443;-77
2020/12/08 06:36:46;;;;;;;8.53;7.73;;;;;;;-1.00;92.33;94064.78;6054615;23;20861;-76
2020/12/08 06:39:13;;;;;;;8.63;7.63;;;;;;;-1.03;92.66;94065.06;6054094;23;20954;-76
2020/12/08 06:41:42;;;;;;;10.20;8.47;;;;;;;-0.96;92.43;94066.09;6055922;23;21072;-76
2020/12/08 06:44:13;;;;;;;16.37;11.60;;;;;;;-1.01;92.61;94062.31;6054244;23;20494;-76
2020/12/08 06:46:52;;;;;;;13.27;11.53;;;;;;;-1.07;92.89;94058.59;6056051;23;20442;-76
2020/12/08 06:49:23;;;;;;;13.67;9.43;;;;;;;-1.04;93.60;94063.44;6055554;23;20446;-76
2020/12/08 06:51:55;;;;;;;10.30;9.30;;;;;;;-1.07;93.41;94061.19;6054613;23;20457;-76
2020/12/08 06:54:22;;;;;;;17.33;8.67;;;;;;;-1.09;93.24;94070.88;6055454;23;20442;-76
2020/12/08 06:56:49;;;;;;;18.63;14.27;;;;;;;-1.20;93.43;94065.94;6056006;23;20450;-76
2020/12/08 06:59:22;;;;;;;12.63;10.60;;;;;;;-1.25;93.84;94065.59;6057726;23;20988;-76
2020/12/08 07:01:50;;;;;;;13.50;9.20;;;;;;;-1.21;93.64;94077.25;6056163;23;20499;-76
2020/12/08 07:04:19;;;;;;;12.40;10.27;;;;;;;-1.21;93.70;94077.25;6057461;23;20438;-76
2020/12/08 07:06:46;;;;;;;11.23;10.13;;;;;;;-1.21;93.83;94082.41;6057821;23;20439;-76
2020/12/08 07:09:14;;;;;;;9.53;8.57;;;;;;;-1.11;93.48;94085.72;6053618;23;20434;-77
2020/12/08 07:11:41;;;;;;;15.60;11.97;;;;;;;-1.12;92.54;94084.09;6057158;23;20470;-76
2020/12/08 07:14:08;;;;;;;11.20;9.47;;;;;;;-1.21;92.71;94075.47;6055507;23;20431;-75
2020/12/08 07:16:38;;;;;;;11.80;10.57;;;;;;;-1.26;92.93;94079.50;6058638;23;20443;-76
2020/12/08 07:19:07;;;;;;;10.90;9.70;;;;;;;-1.28;93.25;94071.03;6055561;23;20439;-76
2020/12/08 07:21:35;;;;;;;10.23;9.13;;;;;;;-1.29;93.96;94066.84;6056021;23;20439;-76
2020/12/08 07:24:08;;;;;;;14.53;10.70;;;;;;;-1.28;93.87;94066.72;6057086;23;20441;-76
2020/12/08 07:26:35;;;;;;;12.03;8.43;;;;;;;-1.11;93.65;94066.78;6054173;23;20438;-76
2020/12/08 07:29:02;;;;;;;12.33;11.03;;;;;;;-1.17;93.27;94063.06;6055866;23;21052;-76
2020/12/08 07:31:30;;;;;;;10.17;9.13;;;;;;;-1.06;92.93;94065.38;6055051;23;21230;-75
2020/12/08 07:33:58;;;;;;;16.70;9.87;;;;;;;-1.15;92.46;94055.94;6057264;23;20989;-76
2020/12/08 07:36:28;;;;;;;10.30;9.40;;;;;;;-1.14;92.81;94067.91;6057676;23;20476;-76
2020/12/08 07:38:57;;;;;;;7.27;6.57;;;;;;;-1.22;92.27;94063.50;6057903;23;20449;-76
2020/12/08 07:41:25;;;;;;;7.30;6.57;;;;;;;-1.27;92.05;94067.53;6057706;23;20445;-75
2020/12/08 07:43:53;;;;;;;10.37;8.13;;;;;;;-1.21;92.09;94066.91;6057660;23;20449;-77
2020/12/08 07:46:24;;;;;;;12.97;10.60;;;;;;;-1.25;92.39;94060.41;6057016;23;20497;-75
2020/12/08 07:49:07;;;;;;;11.80;9.30;;;;;;;-1.32;92.97;94055.03;6057983;23;20435;-76
2020/12/08 07:51:35;;;;;;;10.97;9.97;;;;;;;-1.27;93.24;94057.16;6054640;23;20434;-76
2020/12/08 07:54:04;;;;;;;10.83;8.47;;;;;;;-1.22;93.26;94066.09;6055910;23;20446;-76
2020/12/08 07:56:33;;;;;;;8.47;7.60;;;;;;;-1.13;93.79;94066.94;6057736;23;20439;-76
2020/12/08 07:59:02;;;;;;;13.63;12.30;;;;;;;-1.04;93.69;94068.63;6058296;23;20427;-76
2020/12/08 08:01:29;;;;;;;12.00;8.63;;;;;;;-0.95;94.16;94077.25;6057979;23;20821;-77
2020/12/08 08:03:56;;;;;;;9.27;8.37;;;;;;;-0.84;94.25;94082.16;6057202;23;20443;-77
2020/12/08 08:06:24;;;;;;;12.20;9.90;;;;;;;-0.88;93.71;94099.00;6055609;23;20431;-77
2020/12/08 08:08:51;;;;;;;9.47;7.07;;;;;;;-0.72;93.16;94108.63;6055722;23;20465;-76
2020/12/08 08:11:19;;;;;;;10.80;9.20;;;;;;;-0.73;91.99;94101.81;6055088;23;20439;-76
2020/12/08 08:13:47;;;;;;;9.93;9.00;;;;;;;-0.75;91.08;94111.50;6055286;23;20438;-76
2020/12/08 08:16:16;;;;;;;9.30;8.20;;;;;;;-0.68;91.13;94115.13;6054943;23;20498;-76
2020/12/08 08:18:43;;;;;;;12.57;8.80;;;;;;;-0.75;90.99;94119.28;6057967;23;20443;-76
2020/12/08 08:21:12;;;;;;;9.93;8.93;;;;;;;-0.77;90.36;94119.44;6057203;23;21158;-76
2020/12/08 08:23:39;;;;;;;13.90;7.63;;;;;;;-0.70;90.55;94111.88;6058448;23;20471;-77
2020/12/08 08:26:07;;;;;;;7.80;7.17;;;;;;;-0.73;90.58;94117.34;6057523;23;20427;-76
2020/12/08 08:28:35;;;;;;;41.43;30.73;;;;;;;-0.73;89.81;94115.59;6054067;23;20502;-76
2020/12/08 08:31:02;;;;;;;18.20;13.40;;;;;;;-0.72;90.10;94106.06;6053702;23;20443;-76
2020/12/08 08:33:30;;;;;;;27.10;22.73;;;;;;;-0.67;89.67;94114.16;6026076;23;20231;-76
2020/12/08 08:35:57;;;;;;;14.80;12.63;;;;;;;-0.67;89.79;94116.75;6028017;23;20741;-77
2020/12/08 08:38:26;;;;;;;10.37;9.33;;;;;;;-0.72;90.16;94119.00;6028499;23;20428;-76
2020/12/08 08:40:54;;;;;;;11.17;8.90;;;;;;;-0.69;90.57;94123.88;6026762;23;20530;-76
2020/12/08 08:43:21;;;;;;;14.20;11.83;;;;;;;-0.67;90.04;94127.91;6026519;23;20857;-76
2020/12/08 08:45:51;;;;;;;10.10;9.03;;;;;;;-0.67;90.83;94124.50;6027477;23;21250;-76
2020/12/08 08:48:18;;;;;;;11.57;10.30;;;;;;;-0.67;90.16;94121.94;6025984;23;20443;-76
2020/12/08 08:50:46;;;;;;;15.27;11.50;;;;;;;-0.61;90.58;94118.72;6028454;23;20791;-77
2020/12/08 08:53:14;;;;;;;12.63;11.10;;;;;;;-0.68;90.49;94120.31;6025963;23;20443;-77
2020/12/08 08:55:41;;;;;;;16.60;12.57;;;;;;;-0.73;90.87;94112.16;6028788;23;20954;-76
2020/12/08 08:58:12;;;;;;;12.67;11.13;;;;;;;-0.67;90.93;94111.56;6027978;23;20439;-76
2020/12/08 09:00:39;;;;;;;14.07;11.07;;;;;;;-0.66;90.85;94123.53;6026831;23;20439;-76
2020/12/08 09:03:08;;;;;;;13.00;11.63;;;;;;;-0.64;91.17;94121.59;6026586;23;20508;-76
2020/12/08 09:05:35;;;;;;;13.03;10.40;;;;;;;-0.65;90.57;94120.78;6026823;23;20924;-76
2020/12/08 09:08:03;;;;;;;14.20;11.17;;;;;;;-0.67;90.69;94127.09;6027060;23;20448;-76
2020/12/08 09:10:30;;;;;;;12.83;10.50;;;;;;;-0.60;90.79;94112.59;6025610;23;20449;-75
2020/12/08 09:12:58;;;;;;;13.07;11.73;;;;;;;-0.70;91.20;94120.47;6026610;23;20443;-76
2020/12/08 09:15:25;;;;;;;11.23;8.87;;;;;;;-0.60;91.47;94123.75;6027560;23;20440;-76
2020/12/08 09:17:52;;;;;;;12.00;10.77;;;;;;;-0.53;90.96;94111.00;6026108;23;21036;-76
2020/12/08 09:20:20;;;;;;;12.97;11.47;;;;;;;-0.47;90.97;94102.59;6026384;23;20439;-76
2020/12/08 09:22:47;;;;;;;12.43;11.17;;;;;;;-0.39;90.82;94102.63;6028624;23;20447;-75
2020/12/08 09:25:14;;;;;;;13.27;10.47;;;;;;;-0.35;90.45;94095.38;6026581;23;20515;-76
2020/12/08 09:27:41;;;;;;;13.17;10.57;;;;;;;-0.33;90.19;94096.84;6019169;23;20265;-75
2020/12/08 09:30:07;;;;;;;12.73;10.97;;;;;;;-0.28;90.67;94097.16;6028383;23;20443;-76
2020/12/08 09:32:34;;;;;;;14.10;11.53;;;;;;;-0.19;90.50;94099.78;6027717;23;20208;-76
2020/12/08 09:35:01;;;;;;;14.33;12.47;;;;;;;-0.09;91.02;94092.69;6028041;23;20205;-76
2020/12/08 09:37:29;;;;;;;14.97;10.43;;;;;;;-0.07;90.80;94093.38;6026294;23;20208;-76
2020/12/08 09:39:56;;;;;;;15.80;12.43;;;;;;;0.00;89.65;94091.78;6027687;23;20255;-76
2020/12/08 09:42:23;;;;;;;14.20;12.57;;;;;;;0.09;89.13;94077.84;6028550;23;20205;-76
2020/12/08 09:44:49;;;;;;;11.97;10.70;;;;;;;0.10;88.50;94092.44;6027013;23;20201;-76
2020/12/08 09:47:17;;;;;;;17.43;14.13;;;;;;;0.13;87.26;94094.72;6027736;23;20209;-76
2020/12/08 09:49:45;;;;;;;10.63;9.57;;;;;;;0.18;87.12;94089.03;6028408;23;20195;-76
2020/12/08 09:52:12;;;;;;;10.07;9.07;;;;;;;0.19;87.34;94099.28;6027002;23;20441;-76
2020/12/08 09:54:39;;;;;;;12.43;11.13;;;;;;;0.18;86.47;94110.63;6025485;23;20283;-76
2020/12/08 09:57:06;;;;;;;12.97;10.43;;;;;;;0.14;87.03;94092.94;6027376;23;20255;-76
2020/12/08 09:59:35;;;;;;;16.87;13.57;;;;;;;0.18;86.56;94108.03;6028652;23;20207;-76
2020/12/08 10:02:03;;;;;;;14.57;12.07;;;;;;;0.18;86.74;94112.38;6026872;23;20207;-76
2020/12/08 10:04:30;;;;;;;12.60;11.03;;;;;;;0.21;86.22;94101.69;6026728;23;20200;-76
2020/12/08 10:06:57;;;;;;;13.77;12.20;;;;;;;0.11;86.54;94107.03;6026539;23;20217;-76
2020/12/08 10:09:24;;;;;;;15.53;13.10;;;;;;;0.08;86.91;94102.13;6028086;23;20435;-75
2020/12/08 10:11:52;;;;;;;13.97;12.67;;;;;;;0.16;87.60;94103.94;6028497;23;20262;-76
2020/12/08 10:14:19;;;;;;;14.60;12.17;;;;;;;0.14;87.44;94108.50;6027632;23;20436;-76
2020/12/08 10:16:46;;;;;;;13.90;11.90;;;;;;;0.14;87.74;94082.56;6028474;23;20216;-75
2020/12/08 10:19:13;;;;;;;14.30;12.47;;;;;;;0.19;88.16;94083.72;6028386;23;20201;-76
2020/12/08 10:21:40;;;;;;;14.93;11.30;;;;;;;0.13;87.45;94089.53;6027156;23;20204;-76
2020/12/08 10:24:09;;;;;;;14.37;12.60;;;;;;;0.21;87.82;94081.75;6028390;23;20211;-76
2020/12/08 10:26:36;;;;;;;11.63;10.37;;;;;;;0.37;87.34;94085.34;6019157;23;20218;-77
2020/12/08 10:29:04;;;;;;;13.87;11.53;;;;;;;0.49;87.37;94066.72;6025926;23;20530;-76
2020/12/08 10:31:31;;;;;;;11.87;10.73;;;;;;;0.73;87.62;94057.28;6028433;23;20270;-76
2020/12/08 10:33:59;;;;;;;10.50;9.43;;;;;;;0.89;87.34;94053.88;6026499;23;20199;-76
2020/12/08 10:36:26;;;;;;;10.93;9.93;;;;;;;0.94;85.74;94062.00;6026059;23;20245;-76
2020/12/08 10:38:53;;;;;;;10.80;9.67;;;;;;;0.93;85.35;94061.19;6026943;23;20519;-76
2020/12/08 10:41:21;;;;;;;15.00;11.27;;;;;;;0.91;85.38;94067.47;6028016;23;20202;-77
2020/12/08 10:43:48;;;;;;;11.43;9.63;;;;;;;1.04;84.46;94067.81;6026753;23;20208;-76
2020/12/08 10:46:16;;;;;;;9.47;8.53;;;;;;;1.02;84.64;94067.16;6028260;23;20294;-76
2020/12/08 10:48:43;;;;;;;11.07;10.03;;;;;;;1.10;84.33;94061.97;6026285;23;20208;-76
2020/12/08 10:51:10;;;;;;;10.87;9.83;;;;;;;1.09;84.12;94076.72;6027800;23;20965;-76
2020/12/08 10:53:37;;;;;;;14.00;10.13;;;;;;;1.09;84.50;94076.72;6026321;23;20213;-77
2020/12/08 10:56:06;;;;;;;13.33;9.17;;;;;;;1.20;85.09;94072.97;6027567;23;20333;-76
2020/12/08 10:58:33;;;;;;;10.67;9.67;;;;;;;1.24;83.80;94065.66;6025986;23;20241;-76
2020/12/08 11:01:00;;;;;;;10.10;8.97;;;;;;;1.28;84.34;94054.78;6026420;23;20580;-76
2020/12/08 11:03:28;;;;;;;9.03;8.03;;;;;;;1.32;83.17;94056.06;6025864;23;20262;-76
2020/12/08 11:05:55;;;;;;;9.30;8.40;;;;;;;1.37;83.72;94056.38;6025695;23;20233;-76
2020/12/08 11:08:22;;;;;;;8.50;7.77;;;;;;;1.45;83.32;94049.50;6027977;23;20207;-76
2020/12/08 11:10:49;;;;;;;10.10;8.77;;;;;;;1.42;82.77;94054.06;6026166;23;20288;-76
2020/12/08 11:13:15;;;;;;;8.53;7.77;;;;;;;1.17;83.25;94047.31;6025258;23;20206;-76
2020/12/08 11:15:58;;;;;;;12.40;9.40;;;;;;;1.33;83.24;94036.06;6025381;23;20290;-76
2020/12/08 11:18:25;;;;;;;11.63;10.37;;;;;;;1.38;82.90;94034.59;6027387;23;20209;-76
2020/12/08 11:20:53;;;;;;;10.20;8.57;;;;;;;1.45;83.58;94032.13;6027653;23;20216;-76
2020/12/08 11:23:20;;;;;;;8.97;8.03;;;;;;;1.50;83.88;94031.63;6025764;23;20218;-76
2020/12/08 11:25:47;;;;;;;8.90;8.10;;;;;;;1.59;83.65;94034.03;6028609;23;20212;-77
2020/12/08 11:28:14;;;;;;;8.90;8.10;;;;;;;1.72;84.37;94025.66;6026084;23;20520;-76
2020/12/08 11:30:41;;;;;;;11.07;8.80;;;;;;;1.81;83.36;94027.25;6026555;23;20214;-77
2020/12/08 11:33:08;;;;;;;9.83;8.50;;;;;;;1.81;83.32;94029.03;6025387;23;20266;-77